createdAt,value
2019-06-15T00:00:01.351Z,22.80
2019-06-15T00:02:29.203Z,22.86
2019-06-15T00:04:56.901Z,22.82
2019-06-15T00:07:24.560Z,22.94
2019-06-15T00:09:52.224Z,22.93
2019-06-15T00:12:19.900Z,23.47
2019-06-15T00:14:47.610Z,23.55
2019-06-15T00:17:15.290Z,23.48
2019-06-15T00:19:42.947Z,23.41
2019-06-15T00:22:10.605Z,23.54
2019-06-15T00:24:38.278Z,23.31
2019-06-15T00:27:05.963Z,23.46
2019-06-15T00:29:33.652Z,23.38
2019-06-15T00:32:01.379Z,23.29
2019-06-15T00:34:29.043Z,23.32
2019-06-15T00:36:56.853Z,23.38
2019-06-15T00:39:24.497Z,23.27
2019-06-15T00:41:52.155Z,23.58
2019-06-15T00:44:19.832Z,23.45
2019-06-15T00:46:47.555Z,23.82
2019-06-15T00:49:15.210Z,23.86
2019-06-15T00:51:42.869Z,23.81
2019-06-15T00:54:10.537Z,23.75
2019-06-15T00:56:38.230Z,23.46
2019-06-15T00:59:05.960Z,23.58
2019-06-15T01:01:35.515Z,23.55
2019-06-15T01:04:03.513Z,23.41
2019-06-15T01:06:31.147Z,23.48
2019-06-15T01:08:58.805Z,23.57
2019-06-15T01:11:26.465Z,23.66
2019-06-15T01:13:54.132Z,23.70
2019-06-15T01:16:21.792Z,23.80
2019-06-15T01:18:49.454Z,23.85
2019-06-15T01:21:17.114Z,24.00
2019-06-15T01:23:44.764Z,24.07
2019-06-15T01:26:12.423Z,24.09
2019-06-15T01:28:40.088Z,24.16
2019-06-15T01:31:07.753Z,24.23
2019-06-15T01:33:35.434Z,24.38
2019-06-15T01:36:03.148Z,24.53
2019-06-15T01:38:30.808Z,24.60
2019-06-15T01:40:58.488Z,24.73
2019-06-15T01:43:26.147Z,24.68
2019-06-15T01:45:53.826Z,24.83
2019-06-15T01:48:21.484Z,24.80
2019-06-15T01:50:49.140Z,24.79
2019-06-15T01:53:16.881Z,24.92
2019-06-15T01:55:44.531Z,25.01
2019-06-15T01:58:12.184Z,25.10
2019-06-15T02:00:39.838Z,25.04
2019-06-15T02:03:07.500Z,25.04
2019-06-15T02:05:35.160Z,25.02
2019-06-15T02:08:02.812Z,25.08
2019-06-15T02:10:30.475Z,25.08
2019-06-15T02:12:58.222Z,25.13
2019-06-15T02:15:25.973Z,25.10
2019-06-15T02:17:53.636Z,25.10
2019-06-15T02:20:21.311Z,25.06
2019-06-15T02:22:48.956Z,25.04
2019-06-15T02:25:16.627Z,25.05
2019-06-15T02:27:44.280Z,24.97
2019-06-15T02:30:11.944Z,24.96
2019-06-15T02:32:39.610Z,24.94
2019-06-15T02:35:07.268Z,24.99
2019-06-15T02:37:35.071Z,24.95
2019-06-15T02:40:02.742Z,24.94
2019-06-15T02:42:30.414Z,24.93
2019-06-15T02:44:58.134Z,24.98
2019-06-15T02:47:25.792Z,25.00
2019-06-15T02:49:53.452Z,24.96
2019-06-15T02:52:21.123Z,24.94
2019-06-15T02:54:48.796Z,25.01
2019-06-15T02:57:16.455Z,24.93
2019-06-15T02:59:44.123Z,24.97
2019-06-15T03:02:11.787Z,25.07
2019-06-15T03:04:39.444Z,25.01
2019-06-15T03:07:07.145Z,24.90
2019-06-15T03:09:35.380Z,24.90
2019-06-15T03:12:03.033Z,24.88
2019-06-15T03:14:30.702Z,24.91
2019-06-15T03:16:58.392Z,24.92
2019-06-15T03:19:26.253Z,24.97
2019-06-15T03:21:53.971Z,24.95
2019-06-15T03:24:21.671Z,24.88
2019-06-15T03:26:49.344Z,24.93
2019-06-15T03:29:17.004Z,24.88
2019-06-15T03:31:44.665Z,24.88
2019-06-15T03:34:12.397Z,24.96
2019-06-15T03:36:40.055Z,24.94
2019-06-15T03:39:08.102Z,24.89
2019-06-15T03:41:35.760Z,24.93
2019-06-15T03:44:03.425Z,24.90
2019-06-15T03:46:31.139Z,24.98
2019-06-15T03:48:58.801Z,24.93
2019-06-15T03:51:26.451Z,24.98
2019-06-15T03:53:54.143Z,24.95
2019-06-15T03:56:22.393Z,25.00
2019-06-15T03:58:50.212Z,24.97
2019-06-15T04:01:17.947Z,24.96
2019-06-15T04:03:45.613Z,25.04
2019-06-15T04:06:13.270Z,24.95
2019-06-15T04:08:40.935Z,25.03
2019-06-15T04:11:08.593Z,24.98
2019-06-15T04:13:36.257Z,25.04
2019-06-15T04:16:03.908Z,25.12
2019-06-15T04:18:31.570Z,25.39
2019-06-15T04:20:59.232Z,25.52
2019-06-15T04:23:26.899Z,25.47
2019-06-15T04:25:54.547Z,25.79
2019-06-15T04:28:22.206Z,25.64
2019-06-15T04:30:49.867Z,25.48
2019-06-15T04:33:17.544Z,25.31
2019-06-15T04:35:45.200Z,25.32
2019-06-15T04:38:12.863Z,25.30
2019-06-15T04:40:40.525Z,25.37
2019-06-15T04:43:08.180Z,25.53
2019-06-15T04:45:35.839Z,25.51
2019-06-15T04:48:03.493Z,25.46
2019-06-15T04:50:31.258Z,25.62
2019-06-15T04:52:58.928Z,25.83
2019-06-15T04:55:26.579Z,26.26
2019-06-15T04:57:54.265Z,26.80
2019-06-15T05:00:21.997Z,27.07
2019-06-15T05:02:49.733Z,27.18
2019-06-15T05:05:17.395Z,27.17
2019-06-15T05:07:45.135Z,27.71
2019-06-15T05:10:12.809Z,27.63
2019-06-15T05:12:40.466Z,28.06
2019-06-15T05:15:08.126Z,28.26
2019-06-15T05:17:35.770Z,27.95
2019-06-15T05:20:03.452Z,28.13
2019-06-15T05:22:31.098Z,28.27
2019-06-15T05:24:58.759Z,28.23
2019-06-15T05:27:26.683Z,28.30
2019-06-15T05:29:56.585Z,28.40
2019-06-15T05:32:23.739Z,28.21
2019-06-15T05:34:51.585Z,27.84
2019-06-15T05:37:19.455Z,27.44
2019-06-15T05:39:47.197Z,27.15
2019-06-15T05:42:14.861Z,27.25
2019-06-15T05:44:42.525Z,27.69
2019-06-15T05:47:10.220Z,27.77
2019-06-15T05:49:37.973Z,28.32
2019-06-15T05:52:05.653Z,28.70
2019-06-15T05:54:33.313Z,29.04
2019-06-15T05:57:00.979Z,28.79
2019-06-15T05:59:28.631Z,29.23
2019-06-15T06:01:56.296Z,29.19
2019-06-15T06:04:23.964Z,28.84
2019-06-15T06:06:51.616Z,29.04
2019-06-15T06:09:19.270Z,29.38
2019-06-15T06:11:46.942Z,29.35
2019-06-15T06:14:14.603Z,29.61
2019-06-15T06:16:42.320Z,29.46
2019-06-15T06:19:10.090Z,28.98
2019-06-15T06:21:37.750Z,28.87
2019-06-15T06:24:05.407Z,28.63
2019-06-15T06:26:33.073Z,28.26
2019-06-15T06:29:00.722Z,28.16
2019-06-15T06:31:28.403Z,27.91
2019-06-15T06:33:56.408Z,27.96
2019-06-15T06:36:24.068Z,28.04
2019-06-15T06:38:51.724Z,28.22
2019-06-15T06:41:19.385Z,28.35
2019-06-15T06:43:47.044Z,28.85
2019-06-15T06:46:14.699Z,28.83
2019-06-15T06:48:42.356Z,28.60
2019-06-15T06:51:10.369Z,28.65
2019-06-15T06:53:38.056Z,28.67
2019-06-15T06:56:05.744Z,28.81
2019-06-15T06:58:33.389Z,29.14
2019-06-15T07:01:01.099Z,28.58
2019-06-15T07:03:28.762Z,28.81
2019-06-15T07:05:56.419Z,28.84
2019-06-15T07:08:24.103Z,29.26
2019-06-15T07:10:51.758Z,29.43
2019-06-15T07:13:19.412Z,29.42
2019-06-15T07:15:47.089Z,29.40
2019-06-15T07:18:14.739Z,29.56
2019-06-15T07:20:43.631Z,29.80
2019-06-15T07:23:11.384Z,29.89
2019-06-15T07:25:39.061Z,29.97
2019-06-15T07:28:08.282Z,29.57
2019-06-15T07:30:36.096Z,29.87
2019-06-15T07:33:04.067Z,29.79
2019-06-15T07:35:31.785Z,29.99
2019-06-15T07:37:59.463Z,29.99
2019-06-15T07:40:27.121Z,30.39
2019-06-15T07:42:54.870Z,30.63
2019-06-15T07:45:22.570Z,30.49
2019-06-15T07:47:50.236Z,30.43
2019-06-15T07:50:17.892Z,30.09
2019-06-15T07:52:45.708Z,29.84
2019-06-15T07:55:13.570Z,29.46
2019-06-15T07:57:41.274Z,29.27
2019-06-15T08:00:08.938Z,29.13
2019-06-15T08:02:36.601Z,29.50
2019-06-15T08:05:04.332Z,29.38
2019-06-15T08:07:32.002Z,29.48
2019-06-15T08:09:59.651Z,29.77
2019-06-15T08:12:27.347Z,30.26
2019-06-15T08:14:55.016Z,30.36
2019-06-15T08:17:22.679Z,30.81
2019-06-15T08:19:50.344Z,30.42
2019-06-15T08:22:18.024Z,30.60
2019-06-15T08:24:45.681Z,30.58
2019-06-15T08:27:13.399Z,30.59
2019-06-15T08:29:41.139Z,30.35
2019-06-15T08:32:08.905Z,30.55
2019-06-15T08:34:36.564Z,31.07
2019-06-15T08:37:04.229Z,31.09
2019-06-15T08:39:31.900Z,31.10
2019-06-15T08:41:59.551Z,31.40
2019-06-15T08:44:27.209Z,31.28
2019-06-15T08:46:54.904Z,31.58
2019-06-15T08:49:22.609Z,31.59
2019-06-15T08:51:50.364Z,31.51
2019-06-15T08:54:18.078Z,31.80
2019-06-15T08:56:45.801Z,32.04
2019-06-15T08:59:13.463Z,32.34
2019-06-15T09:01:41.135Z,32.68
2019-06-15T09:04:08.812Z,32.60
2019-06-15T09:06:36.464Z,32.82
2019-06-15T09:09:04.180Z,33.18
2019-06-15T09:11:31.905Z,33.27
2019-06-15T09:13:59.673Z,33.57
2019-06-15T09:16:27.325Z,33.75
2019-06-15T09:18:57.471Z,33.84
2019-06-15T09:21:24.382Z,33.88
2019-06-15T09:23:52.049Z,33.73
2019-06-15T09:26:19.721Z,33.87
2019-06-15T09:28:47.376Z,33.15
2019-06-15T09:31:15.136Z,33.40
2019-06-15T09:33:42.823Z,33.28
2019-06-15T09:36:10.501Z,33.53
2019-06-15T09:38:38.179Z,33.75
2019-06-15T09:41:06.424Z,34.04
2019-06-15T09:43:34.080Z,34.30
2019-06-15T09:46:01.747Z,34.15
2019-06-15T09:48:29.413Z,34.12
2019-06-15T09:50:57.069Z,34.16
2019-06-15T09:53:24.731Z,34.18
2019-06-15T09:55:52.396Z,34.42
2019-06-15T09:58:20.171Z,34.79
2019-06-15T10:00:47.861Z,34.79
2019-06-15T10:03:15.623Z,34.58
2019-06-15T10:05:43.345Z,33.83
2019-06-15T10:08:11.023Z,34.13
2019-06-15T10:10:38.758Z,34.58
2019-06-15T10:13:06.408Z,34.56
2019-06-15T10:15:34.060Z,34.72
2019-06-15T10:18:01.716Z,34.60
2019-06-15T10:20:29.405Z,34.47
2019-06-15T10:22:57.061Z,34.79
2019-06-15T10:25:24.752Z,34.37
2019-06-15T10:27:52.460Z,34.89
2019-06-15T10:30:20.115Z,34.78
2019-06-15T10:32:47.761Z,34.05
2019-06-15T10:35:15.437Z,33.81
2019-06-15T10:37:43.090Z,33.63
2019-06-15T10:40:10.836Z,33.29
2019-06-15T10:42:38.494Z,33.53
2019-06-15T10:45:06.214Z,33.22
2019-06-15T10:47:33.880Z,33.34
2019-06-15T10:50:01.621Z,33.86
2019-06-15T10:52:29.403Z,34.38
2019-06-15T10:54:57.064Z,34.55
2019-06-15T10:57:24.716Z,34.00
2019-06-15T10:59:57.311Z,33.65
2019-06-15T11:02:21.727Z,33.46
2019-06-15T11:04:49.448Z,33.28
2019-06-15T11:07:17.205Z,33.29
2019-06-15T11:09:44.864Z,33.69
2019-06-15T11:12:12.521Z,33.68
2019-06-15T11:14:40.169Z,34.20
2019-06-15T11:17:07.830Z,34.34
2019-06-15T11:19:35.514Z,34.72
2019-06-15T11:22:03.239Z,34.99
2019-06-15T11:24:30.928Z,34.64
2019-06-15T11:26:58.658Z,34.70
2019-06-15T11:29:26.302Z,34.71
2019-06-15T11:31:53.954Z,34.88
2019-06-15T11:34:21.619Z,34.90
2019-06-15T11:36:49.356Z,34.92
2019-06-15T11:39:17.013Z,35.18
2019-06-15T11:41:44.786Z,35.15
2019-06-15T11:44:12.460Z,35.33
2019-06-15T11:46:40.133Z,34.92
2019-06-15T11:49:07.846Z,34.00
2019-06-15T11:51:35.572Z,34.31
2019-06-15T11:54:03.209Z,34.42
2019-06-15T11:56:30.860Z,34.25
2019-06-15T11:58:58.525Z,34.90
2019-06-15T12:01:26.196Z,35.08
2019-06-15T12:03:53.922Z,34.63
2019-06-15T12:06:21.585Z,34.51
2019-06-15T12:08:49.331Z,34.67
2019-06-15T12:11:16.988Z,34.72
2019-06-15T12:13:44.646Z,34.48
2019-06-15T12:16:12.316Z,34.57
2019-06-15T12:18:39.967Z,34.49
2019-06-15T12:21:07.627Z,35.04
2019-06-15T12:23:35.290Z,34.63
2019-06-15T12:26:02.986Z,34.06
2019-06-15T12:28:30.692Z,33.86
2019-06-15T12:30:58.349Z,33.64
2019-06-15T12:33:25.994Z,33.14
2019-06-15T12:35:53.680Z,33.16
2019-06-15T12:38:21.344Z,33.72
2019-06-15T12:40:49.067Z,34.20
2019-06-15T12:43:16.731Z,34.61
2019-06-15T12:45:44.389Z,34.70
2019-06-15T12:48:12.063Z,33.90
2019-06-15T12:50:39.726Z,33.88
2019-06-15T12:53:07.376Z,33.80
2019-06-15T12:55:35.035Z,33.36
2019-06-15T12:58:02.698Z,32.79
2019-06-15T13:00:30.351Z,33.06
2019-06-15T13:02:58.000Z,32.68
2019-06-15T13:05:25.655Z,33.15
2019-06-15T13:07:53.312Z,33.54
2019-06-15T13:10:20.975Z,33.52
2019-06-15T13:12:48.708Z,33.78
2019-06-15T13:15:16.444Z,33.51
2019-06-15T13:17:44.106Z,33.16
2019-06-15T13:20:11.773Z,32.89
2019-06-15T13:22:39.499Z,32.65
2019-06-15T13:25:07.153Z,32.54
2019-06-15T13:27:34.803Z,32.77
2019-06-15T13:30:02.509Z,33.29
2019-06-15T13:32:30.206Z,33.64
2019-06-15T13:34:57.874Z,33.66
2019-06-15T13:37:25.551Z,33.58
2019-06-15T13:39:53.203Z,33.58
2019-06-15T13:42:20.865Z,33.02
2019-06-15T13:44:48.620Z,32.90
2019-06-15T13:47:16.284Z,32.77
2019-06-15T13:49:43.946Z,32.71
2019-06-15T13:52:11.595Z,32.98
2019-06-15T13:54:39.262Z,33.58
2019-06-15T13:57:06.921Z,33.68
2019-06-15T13:59:34.570Z,33.41
2019-06-15T14:02:02.239Z,33.31
2019-06-15T14:04:29.893Z,33.41
2019-06-15T14:06:57.623Z,33.33
2019-06-15T14:09:25.286Z,33.19
2019-06-15T14:11:52.934Z,33.18
2019-06-15T14:14:20.613Z,33.29
2019-06-15T14:16:48.287Z,33.21
2019-06-15T14:19:16.044Z,32.85
2019-06-15T14:21:43.735Z,33.06
2019-06-15T14:24:11.390Z,33.19
2019-06-15T14:26:39.044Z,33.37
2019-06-15T14:29:06.694Z,33.30
2019-06-15T14:31:46.658Z,33.69
2019-06-15T14:34:03.707Z,32.97
2019-06-15T14:36:31.351Z,32.96
2019-06-15T14:38:59.003Z,32.99
2019-06-15T14:41:26.727Z,32.43
2019-06-15T14:43:54.460Z,32.27
2019-06-15T14:46:22.111Z,31.82
2019-06-15T14:48:49.762Z,32.13
2019-06-15T14:51:17.403Z,32.12
2019-06-15T14:53:49.872Z,31.98
2019-06-15T14:56:16.038Z,31.93
2019-06-15T14:58:45.783Z,31.69
2019-06-15T15:01:13.215Z,31.61
2019-06-15T15:03:40.876Z,31.78
2019-06-15T15:06:08.520Z,31.81
2019-06-15T15:08:36.785Z,32.00
2019-06-15T15:11:06.580Z,31.79
2019-06-15T15:13:36.404Z,31.67
2019-06-15T15:16:03.411Z,31.35
2019-06-15T15:18:31.081Z,31.48
2019-06-15T15:20:58.725Z,30.96
2019-06-15T15:23:26.389Z,31.19
2019-06-15T15:25:54.043Z,31.04
2019-06-15T15:28:21.766Z,31.10
2019-06-15T15:30:49.561Z,31.24
2019-06-15T15:33:17.214Z,31.48
2019-06-15T15:35:46.625Z,31.31
2019-06-15T15:38:14.243Z,31.15
2019-06-15T15:40:41.917Z,31.05
2019-06-15T15:43:09.563Z,30.97
2019-06-15T15:45:37.328Z,31.03
2019-06-15T15:48:06.832Z,30.45
2019-06-15T15:50:36.811Z,30.51
2019-06-15T15:53:03.764Z,29.97
2019-06-15T15:55:31.440Z,30.23
2019-06-15T15:57:59.091Z,30.17
2019-06-15T16:00:27.066Z,29.68
2019-06-15T16:02:56.627Z,29.67
2019-06-15T16:05:26.445Z,29.67
2019-06-15T16:07:53.480Z,29.84
2019-06-15T16:10:21.141Z,29.90
2019-06-15T16:12:48.809Z,29.61
2019-06-15T16:15:16.464Z,29.70
2019-06-15T16:17:46.342Z,29.43
2019-06-15T16:20:13.481Z,29.63
2019-06-15T16:22:41.135Z,29.29
2019-06-15T16:25:08.786Z,29.31
2019-06-15T16:27:37.025Z,29.19
2019-06-15T16:30:06.473Z,29.51
2019-06-15T16:32:36.997Z,29.36
2019-06-15T16:35:03.766Z,29.44
2019-06-15T16:37:31.411Z,29.48
2019-06-15T16:39:59.148Z,29.51
2019-06-15T16:42:26.892Z,29.49
2019-06-15T16:44:56.137Z,29.23
2019-06-15T16:47:23.987Z,29.29
2019-06-15T16:49:51.639Z,29.02
2019-06-15T16:52:19.304Z,29.22
2019-06-15T16:54:47.110Z,29.22
2019-06-15T16:57:16.097Z,29.13
2019-06-15T16:59:43.945Z,28.94
2019-06-15T17:02:11.635Z,28.89
2019-06-15T17:04:39.303Z,28.83
2019-06-15T17:07:07.270Z,28.73
2019-06-15T17:09:36.254Z,29.08
2019-06-15T17:12:06.426Z,28.74
2019-06-15T17:14:36.268Z,28.74
2019-06-15T17:17:05.367Z,28.63
2019-06-15T17:19:32.207Z,28.79
2019-06-15T17:22:13.793Z,28.43
2019-06-15T17:24:29.232Z,28.32
2019-06-15T17:26:57.119Z,28.54
2019-06-15T17:29:24.929Z,28.51
2019-06-15T17:31:52.592Z,28.58
2019-06-15T17:34:20.244Z,28.54
2019-06-15T17:36:47.905Z,28.49
2019-06-15T17:39:17.117Z,28.64
2019-06-15T17:41:47.180Z,28.18
2019-06-15T17:44:16.668Z,28.24
2019-06-15T17:46:46.202Z,28.33
2019-06-15T17:49:13.370Z,27.97
2019-06-15T17:51:41.047Z,28.11
2019-06-15T17:54:08.766Z,27.89
2019-06-15T17:56:36.723Z,28.07
2019-06-15T17:59:06.480Z,28.00
2019-06-15T18:01:36.284Z,28.08
2019-06-15T18:04:03.321Z,28.07
2019-06-15T18:06:30.979Z,27.99
2019-06-15T18:08:58.639Z,27.88
2019-06-15T18:11:26.430Z,28.15
2019-06-15T18:13:56.469Z,27.98
2019-06-15T18:16:26.422Z,27.93
2019-06-15T18:18:52.958Z,27.75
2019-06-15T18:21:20.608Z,27.74
2019-06-15T18:23:48.274Z,27.97
2019-06-15T18:26:16.294Z,27.89
2019-06-15T18:28:44.064Z,27.75
2019-06-15T18:31:11.718Z,27.64
2019-06-15T18:33:39.373Z,27.54
2019-06-15T18:36:07.025Z,27.44
2019-06-15T18:38:36.993Z,27.40
2019-06-15T18:41:04.051Z,27.43
2019-06-15T18:43:31.715Z,27.40
2019-06-15T18:45:59.365Z,27.35
2019-06-15T18:48:27.038Z,27.17
2019-06-15T18:50:56.009Z,27.22
2019-06-15T18:53:24.000Z,27.25
2019-06-15T18:55:51.649Z,27.44
2019-06-15T18:58:19.311Z,26.85
2019-06-15T19:00:46.973Z,27.15
2019-06-15T19:03:16.765Z,26.89
2019-06-15T19:05:44.059Z,26.88
2019-06-15T19:08:11.728Z,26.92
2019-06-15T19:10:39.395Z,26.77
2019-06-15T19:13:07.618Z,26.64
2019-06-15T19:15:37.253Z,26.49
2019-06-15T19:18:07.549Z,26.27
2019-06-15T19:20:36.862Z,26.29
2019-06-15T19:23:06.561Z,26.31
2019-06-15T19:25:33.011Z,26.16
2019-06-15T19:28:00.657Z,26.00
2019-06-15T19:30:28.320Z,26.28
2019-06-15T19:32:56.609Z,25.90
2019-06-15T19:35:26.337Z,26.05
2019-06-15T19:37:56.288Z,26.03
2019-06-15T19:40:23.234Z,25.83
2019-06-15T19:42:50.886Z,25.83
2019-06-15T19:45:18.539Z,25.77
2019-06-15T19:47:46.961Z,25.75
2019-06-15T19:50:16.611Z,25.65
2019-06-15T19:52:46.147Z,25.49
2019-06-15T19:55:13.553Z,25.60
2019-06-15T19:57:41.217Z,25.61
2019-06-15T20:00:08.871Z,25.55
2019-06-15T20:02:36.581Z,25.54
2019-06-15T20:05:04.360Z,25.28
2019-06-15T20:07:32.017Z,25.31
2019-06-15T20:09:59.753Z,25.27
2019-06-15T20:12:27.519Z,25.15
2019-06-15T20:14:56.723Z,25.06
2019-06-15T20:17:24.525Z,25.01
2019-06-15T20:19:52.184Z,25.15
2019-06-15T20:22:19.840Z,25.04
2019-06-15T20:24:47.604Z,24.86
2019-06-15T20:27:16.471Z,24.99
2019-06-15T20:29:44.286Z,25.28
2019-06-15T20:32:11.938Z,25.06
2019-06-15T20:34:39.586Z,24.78
2019-06-15T20:37:07.268Z,24.90
2019-06-15T20:39:36.347Z,25.05
2019-06-15T20:42:04.326Z,24.63
2019-06-15T20:44:31.954Z,24.45
2019-06-15T20:46:59.636Z,24.72
2019-06-15T20:49:27.360Z,24.78
2019-06-15T20:51:56.156Z,24.35
2019-06-15T20:54:23.954Z,24.43
2019-06-15T20:56:51.640Z,24.30
2019-06-15T20:59:19.292Z,24.29
2019-06-15T21:01:46.960Z,24.25
2019-06-15T21:04:16.159Z,24.13
2019-06-15T21:06:44.001Z,24.19
2019-06-15T21:09:11.711Z,24.19
2019-06-15T21:11:39.436Z,24.48
2019-06-15T21:14:07.090Z,24.34
2019-06-15T21:16:36.941Z,24.27
2019-06-15T21:19:06.345Z,24.15
2019-06-15T21:21:33.531Z,24.18
2019-06-15T21:24:01.278Z,24.13
2019-06-15T21:26:28.934Z,24.15
2019-06-15T21:28:56.677Z,24.11
2019-06-15T21:31:26.217Z,24.10
2019-06-15T21:33:56.010Z,24.02
2019-06-15T21:36:23.144Z,23.92
2019-06-15T21:38:50.797Z,23.73
2019-06-15T21:41:18.446Z,23.83
2019-06-15T21:43:47.200Z,23.81
2019-06-15T21:46:16.821Z,23.87
2019-06-15T21:48:46.758Z,23.75
2019-06-15T21:51:16.434Z,23.72
2019-06-15T21:53:43.117Z,23.69
2019-06-15T21:56:10.847Z,23.29
2019-06-15T21:58:38.514Z,23.28
2019-06-15T22:01:06.369Z,23.06
2019-06-15T22:03:36.642Z,23.36
2019-06-15T22:06:06.260Z,23.27
2019-06-15T22:08:32.881Z,23.40
2019-06-15T22:11:00.527Z,23.34
2019-06-15T22:13:28.195Z,23.20
2019-06-15T22:15:56.175Z,23.25
2019-06-15T22:18:23.983Z,23.19
2019-06-15T22:20:51.640Z,23.00
2019-06-15T22:23:19.300Z,23.32
2019-06-15T22:25:46.953Z,23.17
2019-06-15T22:28:16.471Z,23.05
2019-06-15T22:30:46.002Z,22.97
2019-06-15T22:33:13.317Z,22.93
2019-06-15T22:35:40.972Z,22.98
2019-06-15T22:38:08.618Z,22.88
2019-06-15T22:40:36.452Z,22.69
2019-06-15T22:43:04.293Z,22.72
2019-06-15T22:45:31.952Z,22.94
2019-06-15T22:47:59.613Z,22.82
2019-06-15T22:50:27.291Z,22.70
2019-06-15T22:52:56.476Z,22.84
2019-06-15T22:55:26.101Z,22.79
2019-06-15T22:57:53.613Z,22.45
2019-06-15T23:00:21.372Z,22.61
2019-06-15T23:02:49.015Z,22.79
2019-06-15T23:05:17.200Z,22.76
2019-06-15T23:07:47.289Z,22.64
2019-06-15T23:10:16.536Z,22.66
2019-06-15T23:12:46.237Z,22.25
2019-06-15T23:15:13.107Z,22.39
2019-06-15T23:17:40.795Z,22.52
2019-06-15T23:20:08.491Z,22.38
2019-06-15T23:22:36.144Z,22.37
2019-06-15T23:25:05.920Z,22.47
2019-06-15T23:27:33.164Z,22.19
2019-06-15T23:30:00.827Z,22.17
2019-06-15T23:32:28.479Z,22.46
2019-06-15T23:34:56.506Z,22.47
2019-06-15T23:37:26.508Z,22.62
2019-06-15T23:39:59.072Z,22.45
2019-06-15T23:42:27.278Z,22.35
2019-06-15T23:44:56.117Z,22.40
2019-06-15T23:47:26.226Z,22.36
2019-06-15T23:49:53.284Z,22.17
2019-06-15T23:52:20.944Z,22.41
2019-06-15T23:54:48.583Z,22.13
2019-06-15T23:57:16.247Z,22.37
2019-06-15T23:59:46.442Z,22.34
